Time;durP1;ratioP1;P1;durP2;ratioP2;P2;SDS_P1;SDS_P2;PMS_P1;PMS_P2;Temp;Humidity;BMP_temperature;BMP_pressure;BME280_temperature;BME280_humidity;BME280_pressure;Samples;Min_cycle;Max_cycle;Signal;HPM_P1;HPM_P2
2023/04/29 00:02:02;;;;;;;;;;;;;;;13.22;80.69;101362.25;7340342;19;19919;-63
2023/04/29 00:04:29;;;;;;;;;;;;;;;13.18;80.68;101359.13;7353679;19;19944;-62
2023/04/29 00:06:56;;;;;;;;;;;;;;;13.13;81.02;101357.91;7328451;19;20360;-62
2023/04/29 00:09:23;;;;;;;;;;;;;;;13.08;81.07;101360.16;7328198;19;20258;-63
2023/04/29 00:11:50;;;;;;;;;;;;;;;13.04;81.42;101356.19;7356964;19;20321;-62
2023/04/29 00:14:17;;;;;;;;;;;;;;;12.97;82.25;101358.63;7353225;19;20002;-62
2023/04/29 00:16:44;;;;;;;;;;;;;;;12.94;82.67;101355.47;7351748;19;19923;-62
2023/04/29 00:19:11;;;;;;;;;;;;;;;12.93;83.17;101359.91;7355832;19;20948;-61
2023/04/29 00:21:38;;;;;;;;;;;;;;;12.91;82.69;101359.22;7353059;19;19922;-62
2023/04/29 00:24:05;;;;;;;;;;;;;;;12.92;83.44;101360.88;7354381;19;19986;-63
2023/04/29 00:26:33;;;;;;;;;;;;;;;12.89;82.63;101358.56;7349665;19;20718;-63
2023/04/29 00:29:00;;;;;;;;;;;;;;;12.90;82.42;101360.19;7330238;19;20383;-62
2023/04/29 00:31:28;;;;;;;;;;;;;;;12.89;82.51;101363.03;7352018;19;19919;-65
2023/04/29 00:33:56;;;;;;;;;;;;;;;12.91;82.12;101358.41;7356370;19;19926;-61
2023/04/29 00:36:23;;;;;;;;;;;;;;;12.89;81.71;101363.84;7350696;19;21005;-61
2023/04/29 00:38:50;;;;;;;;;;;;;;;12.88;81.14;101367.47;7354362;19;19919;-60
2023/04/29 00:41:17;;;;;;;;;;;;;;;12.81;81.60;101369.06;7356236;19;20336;-63
2023/04/29 00:43:44;;;;;;;;;;;;;;;12.74;82.09;101368.88;7353217;19;19994;-63
2023/04/29 00:46:11;;;;;;;;;;;;;;;12.69;82.77;101362.38;7349925;19;19933;-64
2023/04/29 00:48:38;;;;;;;;;;;;;;;12.68;83.09;101369.47;7355945;19;19919;-60
2023/04/29 00:51:05;;;;;;;;;;;;;;;12.66;83.09;101379.34;7355777;19;19918;-61
2023/04/29 00:53:32;;;;;;;;;;;;;;;12.69;83.28;101381.69;7354326;19;19925;-62
2023/04/29 00:56:00;;;;;;;;;;;;;;;12.70;83.01;101377.22;7360344;19;19919;-63
2023/04/29 00:58:32;;;;;;;;;;;;;;;12.67;82.95;101373.09;7355422;19;20420;-61
2023/04/29 01:01:03;;;;;;;;;;;;;;;12.67;82.47;101370.44;7353191;19;20796;-62
2023/04/29 01:03:31;;;;;;;;;;;;;;;12.64;82.51;101370.75;7359066;19;20761;-63
2023/04/29 01:06:05;;;;;;;;;;;;;;;12.62;82.52;101382.44;7361071;19;20006;-63
2023/04/29 01:08:36;;;;;;;;;;;;;;;12.59;83.04;101378.31;7359276;19;19930;-63
2023/04/29 01:11:08;;;;;;;;;;;;;;;12.59;83.10;101369.56;7361052;19;19957;-63
2023/04/29 01:13:42;;;;;;;;;;;;;;;12.59;83.21;101378.31;7357375;19;20369;-62
2023/04/29 01:16:16;;;;;;;;;;;;;;;12.61;83.08;101378.13;7356626;19;19990;-62
2023/04/29 01:18:48;;;;;;;;;;;;;;;12.62;82.78;101377.16;7357839;19;21579;-63
2023/04/29 01:21:15;;;;;;;;;;;;;;;12.61;82.66;101380.78;7355987;19;20331;-64
2023/04/29 01:23:44;;;;;;;;;;;;;;;12.59;82.98;101374.84;7358932;19;19919;-64
2023/04/29 01:26:11;;;;;;;;;;;;;;;12.58;83.53;101374.00;7357429;19;19914;-63
2023/04/29 01:28:38;;;;;;;;;;;;;;;12.56;83.41;101373.31;7358370;19;20487;-62
2023/04/29 01:31:07;;;;;;;;;;;;;;;12.57;83.90;101382.06;7351149;19;20021;-62
2023/04/29 01:33:44;;;;;;;;;;;;;;;12.55;83.82;101386.66;7358987;19;19922;-63
2023/04/29 01:36:11;;;;;;;;;;;;;;;12.56;84.27;101398.88;7357960;19;19994;-63
2023/04/29 01:38:38;;;;;;;;;;;;;;;12.55;84.57;101386.66;7358284;19;19919;-63
2023/04/29 01:41:06;;;;;;;;;;;;;;;12.53;84.16;101386.84;7357663;19;19974;-63
2023/04/29 01:43:36;;;;;;;;;;;;;;;12.49;84.37;101389.94;7357440;19;19922;-62
2023/04/29 01:46:05;;;;;;;;;;;;;;;12.47;83.79;101394.53;7355743;19;20019;-60
2023/04/29 01:48:32;;;;;;;;;;;;;;;12.43;84.77;101396.63;7357410;19;19914;-62
2023/04/29 01:51:00;;;;;;;;;;;;;;;12.43;85.34;101389.56;7360331;19;20734;-61
2023/04/29 01:53:27;;;;;;;;;;;;;;;12.46;84.92;101392.84;7359243;19;20764;-62
2023/04/29 01:55:54;;;;;;;;;;;;;;;12.47;85.34;101399.78;7360278;19;19926;-62
2023/04/29 01:58:21;;;;;;;;;;;;;;;12.46;85.05;101395.50;7356755;19;19922;-61
2023/04/29 02:00:48;;;;;;;;;;;;;;;12.46;85.02;101384.94;7355791;19;19911;-67
2023/04/29 02:03:16;;;;;;;;;;;;;;;12.46;85.42;101395.50;7358124;19;19915;-64
2023/04/29 02:05:43;;;;;;;;;;;;;;;12.45;84.77;101394.66;7358924;19;20372;-63
2023/04/29 02:08:10;;;;;;;;;;;;;;;12.47;85.98;101398.00;7356344;19;19947;-62
2023/04/29 02:10:37;;;;;;;;;;;;;;;12.49;85.57;101401.31;7360572;19;20324;-63
2023/04/29 02:13:04;;;;;;;;;;;;;;;12.48;85.47;101401.47;7360597;19;19941;-62
2023/04/29 02:15:31;;;;;;;;;;;;;;;12.46;85.62;101400.78;7356192;19;19926;-65
2023/04/29 02:17:58;;;;;;;;;;;;;;;12.44;85.33;101406.22;7358851;19;19927;-63
2023/04/29 02:20:25;;;;;;;;;;;;;;;12.42;85.19;101401.09;7357887;19;19923;-64
2023/04/29 02:22:52;;;;;;;;;;;;;;;12.40;85.54;101410.13;7357549;19;19923;-63
2023/04/29 02:25:20;;;;;;;;;;;;;;;12.39;85.04;101403.22;7359932;19;20623;-62
2023/04/29 02:27:50;;;;;;;;;;;;;;;12.39;85.75;101409.28;7358081;19;19927;-63
2023/04/29 02:30:17;;;;;;;;;;;;;;;12.35;85.42;101405.28;7357924;19;19941;-63
2023/04/29 02:32:44;;;;;;;;;;;;;;;12.35;85.76;101402.66;7356717;19;19915;-63
2023/04/29 02:35:11;;;;;;;;;;;;;;;12.32;85.36;101410.88;7356537;19;19927;-62
2023/04/29 02:37:38;;;;;;;;;;;;;;;12.30;85.16;101415.47;7355143;19;20591;-64
2023/04/29 02:40:06;;;;;;;;;;;;;;;12.26;85.36;101410.63;7357641;19;20302;-63
2023/04/29 02:42:33;;;;;;;;;;;;;;;12.25;85.74;101411.63;7358721;19;19926;-62
2023/04/29 02:45:00;;;;;;;;;;;;;;;12.25;85.58;101407.16;7362814;19;20816;-63
2023/04/29 02:47:26;;;;;;;;;;;;;;;12.24;85.97;101417.91;7364319;19;19994;-62
2023/04/29 02:49:54;;;;;;;;;;;;;;;12.13;85.46;101412.81;7364882;19;19937;-62
2023/04/29 02:52:21;;;;;;;;;;;;;;;12.13;85.51;101418.94;7363799;19;20377;-63
2023/04/29 02:54:48;;;;;;;;;;;;;;;12.15;86.19;101424.88;7362337;19;19918;-63
2023/04/29 02:57:15;;;;;;;;;;;;;;;12.15;85.23;101424.03;7360749;19;19914;-62
2023/04/29 02:59:43;;;;;;;;;;;;;;;12.13;84.84;101418.94;7360510;19;19926;-63
2023/04/29 03:02:10;;;;;;;;;;;;;;;12.12;85.33;101427.81;7361996;19;20276;-63
2023/04/29 03:04:38;;;;;;;;;;;;;;;12.15;85.07;101439.88;7361710;19;20328;-63
2023/04/29 03:07:06;;;;;;;;;;;;;;;12.12;85.23;101435.72;7364071;19;19918;-63
2023/04/29 03:09:34;;;;;;;;;;;;;;;12.11;85.45;101439.34;7363670;19;19922;-64
2023/04/29 03:12:01;;;;;;;;;;;;;;;12.10;85.10;101440.31;7363434;19;19922;-64
2023/04/29 03:14:29;;;;;;;;;;;;;;;12.09;84.74;101437.84;7360104;19;19918;-63
2023/04/29 03:16:56;;;;;;;;;;;;;;;12.03;85.73;101430.50;7359697;19;19933;-62
2023/04/29 03:19:23;;;;;;;;;;;;;;;12.03;85.69;101438.44;7362820;19;20325;-62
2023/04/29 03:21:50;;;;;;;;;;;;;;;12.02;85.10;101434.13;7361387;19;20582;-64
2023/04/29 03:24:19;;;;;;;;;;;;;;;12.03;86.54;101435.78;7360403;19;19933;-62
2023/04/29 03:26:46;;;;;;;;;;;;;;;12.00;86.18;101443.00;7362745;19;19942;-62
2023/04/29 03:29:13;;;;;;;;;;;;;;;11.98;85.40;101437.06;7362241;19;19914;-64
2023/04/29 03:31:40;;;;;;;;;;;;;;;11.99;85.96;101437.88;7358621;19;19938;-62
2023/04/29 03:34:07;;;;;;;;;;;;;;;11.96;85.37;101435.53;7359828;19;19931;-62
2023/04/29 03:36:34;;;;;;;;;;;;;;;11.95;85.32;101437.34;7362852;19;19925;-63
2023/04/29 03:39:01;;;;;;;;;;;;;;;11.95;85.43;101439.13;7362993;19;19915;-67
2023/04/29 03:41:28;;;;;;;;;;;;;;;11.96;85.34;101446.09;7362264;19;20359;-62
2023/04/29 03:43:59;;;;;;;;;;;;;;;11.92;84.73;101445.56;7356227;19;21676;-62
2023/04/29 03:46:26;;;;;;;;;;;;;;;11.93;85.78;101446.38;7359513;19;19946;-62
2023/04/29 03:48:56;;;;;;;;;;;;;;;11.93;85.05;101446.38;7360201;19;19914;-62
2023/04/29 03:51:24;;;;;;;;;;;;;;;11.84;84.71;101440.16;7361817;19;19934;-62
2023/04/29 03:53:52;;;;;;;;;;;;;;;11.84;85.96;101448.06;7357878;19;20267;-64
2023/04/29 03:56:19;;;;;;;;;;;;;;;11.86;86.19;101447.94;7360404;19;19974;-62
2023/04/29 03:58:47;;;;;;;;;;;;;;;11.86;85.19;101446.13;7363553;19;19918;-63
2023/04/29 04:01:14;;;;;;;;;;;;;;;11.88;85.35;101443.34;7359361;19;20369;-62
2023/04/29 04:03:42;;;;;;;;;;;;;;;11.87;85.08;101442.53;7360646;19;19925;-62
2023/04/29 04:06:09;;;;;;;;;;;;;;;11.86;84.63;101445.31;7359922;19;19930;-64
2023/04/29 04:08:36;;;;;;;;;;;;;;;11.85;85.31;101439.19;7358639;19;20599;-63
2023/04/29 04:11:03;;;;;;;;;;;;;;;11.85;84.90;101444.47;7360361;19;19923;-63
2023/04/29 04:13:30;;;;;;;;;;;;;;;11.85;85.49;101447.09;7360718;19;20325;-63
2023/04/29 04:15:57;;;;;;;;;;;;;;;11.85;85.52;101454.19;7357955;19;20283;-63
2023/04/29 04:18:24;;;;;;;;;;;;;;;11.84;85.16;101444.59;7361013;19;19907;-62
2023/04/29 04:20:51;;;;;;;;;;;;;;;11.84;85.41;101457.78;7360647;19;19933;-63
2023/04/29 04:23:18;;;;;;;;;;;;;;;11.83;85.34;101464.88;7360100;19;20544;-63
2023/04/29 04:25:46;;;;;;;;;;;;;;;11.83;84.78;101461.41;7360368;19;20341;-63
2023/04/29 04:28:13;;;;;;;;;;;;;;;11.76;85.28;101458.53;7357719;19;19945;-63
2023/04/29 04:30:40;;;;;;;;;;;;;;;11.77;85.36;101462.00;7358720;19;20317;-62
2023/04/29 04:33:07;;;;;;;;;;;;;;;11.76;85.51;101471.72;7359912;19;19961;-64
2023/04/29 04:35:34;;;;;;;;;;;;;;;11.76;85.45;101470.88;7360379;19;19992;-63
2023/04/29 04:38:01;;;;;;;;;;;;;;;11.76;85.17;101476.97;7358964;19;19935;-62
2023/04/29 04:40:28;;;;;;;;;;;;;;;11.76;85.18;101478.78;7358748;19;19911;-63
2023/04/29 04:42:55;;;;;;;;;;;;;;;11.78;85.10;101490.88;7361025;19;19923;-63
2023/04/29 04:45:27;;;;;;;;;;;;;;;11.77;84.37;101496.28;7357979;19;19922;-63
2023/04/29 04:47:54;;;;;;;;;;;;;;;11.79;85.40;101492.50;7361312;19;19918;-65
2023/04/29 04:50:21;;;;;;;;;;;;;;;11.83;85.47;101498.34;7359917;19;20255;-63
2023/04/29 04:52:48;;;;;;;;;;;;;;;11.83;84.75;101498.34;7359114;19;20536;-62
2023/04/29 04:55:15;;;;;;;;;;;;;;;11.86;85.18;101505.94;7357523;19;20157;-62
2023/04/29 04:57:42;;;;;;;;;;;;;;;11.87;84.97;101503.16;7361695;19;19943;-64
2023/04/29 05:00:09;;;;;;;;;;;;;;;11.91;84.72;101508.97;7358502;19;20835;-63
2023/04/29 05:02:36;;;;;;;;;;;;;;;11.93;85.11;101507.88;7360011;19;19939;-64
2023/04/29 05:05:04;;;;;;;;;;;;;;;11.94;85.16;101516.59;7357742;19;19919;-62
2023/04/29 05:07:32;;;;;;;;;;;;;;;11.95;84.28;101516.44;7357834;19;19972;-63
2023/04/29 05:09:59;;;;;;;;;;;;;;;12.01;83.84;101517.69;7358179;19;19923;-62
2023/04/29 05:12:29;;;;;;;;;;;;;;;12.04;83.66;101522.66;7359626;19;19943;-62
2023/04/29 05:14:56;;;;;;;;;;;;;;;12.12;84.97;101524.59;7357448;19;19948;-62
2023/04/29 05:17:23;;;;;;;;;;;;;;;12.15;84.75;101529.56;7359658;19;19925;-64
2023/04/29 05:19:50;;;;;;;;;;;;;;;12.15;83.64;101533.03;7357449;19;19923;-64
2023/04/29 05:22:18;;;;;;;;;;;;;;;12.20;83.25;101532.59;7357973;19;20303;-67
2023/04/29 05:24:47;;;;;;;;;;;;;;;12.24;83.49;101533.97;7357651;19;19949;-61
2023/04/29 05:27:14;;;;;;;;;;;;;;;12.26;83.00;101540.75;7359948;19;20313;-63
2023/04/29 05:29:41;;;;;;;;;;;;;;;12.31;83.36;101540.31;7356321;19;19925;-62
2023/04/29 05:32:08;;;;;;;;;;;;;;;12.32;83.13;101539.34;7358750;19;20031;-62
2023/04/29 05:34:35;;;;;;;;;;;;;;;12.32;82.41;101542.81;7356881;19;19923;-63
2023/04/29 05:37:02;;;;;;;;;;;;;;;12.36;84.00;101543.34;7357661;19;19921;-63
2023/04/29 05:39:29;;;;;;;;;;;;;;;12.37;82.76;101545.84;7358688;19;19953;-63
2023/04/29 05:41:57;;;;;;;;;;;;;;;12.40;81.52;101547.34;7359237;19;19929;-63
2023/04/29 05:44:25;;;;;;;;;;;;;;;12.40;81.88;101545.53;7356727;19;20731;-63
2023/04/29 05:46:52;;;;;;;;;;;;;;;12.40;81.56;101548.19;7358182;19;19921;-63
2023/04/29 05:49:19;;;;;;;;;;;;;;;12.43;81.61;101542.63;7358832;19;19918;-62
2023/04/29 05:51:46;;;;;;;;;;;;;;;12.47;81.27;101551.06;7359743;19;21697;-63
2023/04/29 05:54:13;;;;;;;;;;;;;;;12.50;80.69;101550.78;7357191;19;20726;-63
2023/04/29 05:56:40;;;;;;;;;;;;;;;12.53;80.91;101547.03;7357318;19;19951;-63
2023/04/29 05:59:07;;;;;;;;;;;;;;;12.53;80.85;101545.22;7355422;19;19919;-61
2023/04/29 06:01:34;;;;;;;;;;;;;;;12.56;81.15;101549.34;7355349;19;19918;-64
2023/04/29 06:04:01;;;;;;;;;;;;;;;12.58;81.61;101553.53;7358301;19;19918;-63
2023/04/29 06:06:28;;;;;;;;;;;;;;;12.60;81.94;101546.28;7357346;19;20320;-64
2023/04/29 06:08:59;;;;;;;;;;;;;;;12.60;81.58;101546.28;7354372;19;19920;-62
2023/04/29 06:11:26;;;;;;;;;;;;;;;12.58;81.05;101534.22;7358942;19;20381;-63
2023/04/29 06:13:53;;;;;;;;;;;;;;;12.60;80.98;101537.50;7356459;19;19922;-63
2023/04/29 06:16:20;;;;;;;;;;;;;;;12.65;80.71;101541.38;7352723;19;19923;-63
2023/04/29 06:18:48;;;;;;;;;;;;;;;12.69;80.90;101550.69;7365037;19;19994;-63
2023/04/29 06:21:15;;;;;;;;;;;;;;;12.75;80.24;101549.22;7363469;19;20204;-62
2023/04/29 06:23:42;;;;;;;;;;;;;;;12.81;79.44;101553.91;7366656;19;19926;-64
2023/04/29 06:26:09;;;;;;;;;;;;;;;12.84;80.44;101557.13;7365184;19;19919;-63
2023/04/29 06:28:36;;;;;;;;;;;;;;;12.87;79.51;101558.63;7367734;19;19936;-64
2023/04/29 06:31:03;;;;;;;;;;;;;;;12.90;78.62;101554.84;7361883;19;20768;-64
2023/04/29 06:33:32;;;;;;;;;;;;;;;12.93;78.91;101565.09;7367267;19;19929;-62
2023/04/29 06:35:59;;;;;;;;;;;;;;;12.94;78.63;101566.78;7363451;19;19922;-63
2023/04/29 06:38:27;;;;;;;;;;;;;;;12.96;77.27;101567.44;7362847;19;20213;-62
2023/04/29 06:40:54;;;;;;;;;;;;;;;12.99;77.30;101567.16;7364659;19;19919;-63
2023/04/29 06:43:21;;;;;;;;;;;;;;;12.96;77.91;101560.34;7362605;19;19938;-64
2023/04/29 06:45:48;;;;;;;;;;;;;;;12.97;77.99;101571.75;7357544;19;19923;-63
2023/04/29 06:48:15;;;;;;;;;;;;;;;12.98;77.91;101574.25;7364346;19;20424;-61
2023/04/29 06:50:48;;;;;;;;;;;;;;;13.00;77.03;101574.94;7362040;19;19919;-63
2023/04/29 06:53:15;;;;;;;;;;;;;;;12.99;77.09;101578.56;7363828;19;20852;-63
2023/04/29 06:55:44;;;;;;;;;;;;;;;13.04;76.06;101578.94;7363209;19;19926;-62
2023/04/29 06:58:12;;;;;;;;;;;;;;;13.13;75.40;101579.88;7363228;19;20268;-62
2023/04/29 07:00:39;;;;;;;;;;;;;;;13.15;75.13;101599.91;7355354;19;19985;-62
2023/04/29 07:03:07;;;;;;;;;;;;;;;13.16;74.82;101604.19;7364211;19;19935;-62
2023/04/29 07:05:34;;;;;;;;;;;;;;;13.16;75.24;101598.06;7360734;19;19929;-63
2023/04/29 07:08:01;;;;;;;;;;;;;;;13.24;76.04;101593.69;7364683;19;19915;-62
2023/04/29 07:10:28;;;;;;;;;;;;;;;13.37;75.26;101597.75;7362270;19;20027;-64
2023/04/29 07:12:55;;;;;;;;;;;;;;;13.40;74.14;101602.75;7361252;19;20428;-62
2023/04/29 07:15:22;;;;;;;;;;;;;;;13.51;74.47;101608.63;7359937;19;19926;-62
2023/04/29 07:17:49;;;;;;;;;;;;;;;13.61;72.63;101609.38;7362706;19;20441;-63
2023/04/29 07:20:17;;;;;;;;;;;;;;;13.84;72.32;101619.47;7363139;19;19922;-63
2023/04/29 07:22:46;;;;;;;;;;;;;;;13.96;71.40;101613.78;7358218;19;19919;-62
2023/04/29 07:25:13;;;;;;;;;;;;;;;14.08;70.91;101612.53;7361813;19;19926;-63
2023/04/29 07:27:41;;;;;;;;;;;;;;;14.05;70.14;101617.31;7362804;19;19946;-63
2023/04/29 07:30:08;;;;;;;;;;;;;;;14.02;71.89;101612.31;7358282;19;20195;-62
2023/04/29 07:32:35;;;;;;;;;;;;;;;13.96;71.56;101607.66;7363169;19;19914;-62
2023/04/29 07:35:03;;;;;;;;;;;;;;;14.07;72.33;101613.50;7364787;19;20369;-63
2023/04/29 07:37:30;;;;;;;;;;;;;;;14.12;71.26;101616.50;7362440;19;19916;-65
2023/04/29 07:39:57;;;;;;;;;;;;;;;14.22;70.31;101618.25;7363397;19;19947;-63
2023/04/29 07:42:24;;;;;;;;;;;;;;;14.41;70.61;101623.34;7362423;19;19945;-64
2023/04/29 07:44:51;;;;;;;;;;;;;;;14.75;69.46;101633.91;7357636;19;19955;-64
2023/04/29 07:47:19;;;;;;;;;;;;;;;15.18;66.98;101633.72;7361560;19;20898;-63
2023/04/29 07:49:46;;;;;;;;;;;;;;;15.57;65.31;101635.78;7361672;19;19943;-63
2023/04/29 07:52:13;;;;;;;;;;;;;;;15.99;62.72;101632.94;7361887;19;20127;-62
2023/04/29 07:54:40;;;;;;;;;;;;;;;16.08;63.00;101639.88;7360729;19;19918;-62
2023/04/29 07:57:07;;;;;;;;;;;;;;;16.17;62.23;101641.53;7360551;19;19922;-63
2023/04/29 07:59:34;;;;;;;;;;;;;;;16.23;61.59;101635.53;7356091;19;19930;-62
2023/04/29 08:02:01;;;;;;;;;;;;;;;16.26;61.00;101636.03;7364106;19;19929;-62
2023/04/29 08:04:29;;;;;;;;;;;;;;;16.26;61.37;101643.16;7361874;19;19946;-62
2023/04/29 08:06:56;;;;;;;;;;;;;;;16.21;62.24;101645.50;7360951;19;19929;-62
2023/04/29 08:09:23;;;;;;;;;;;;;;;16.19;63.85;101644.84;7360268;19;19911;-62
2023/04/29 08:11:50;;;;;;;;;;;;;;;16.15;63.05;101662.94;7358835;19;19919;-62
2023/04/29 08:14:18;;;;;;;;;;;;;;;16.16;62.10;101655.78;7359411;19;19946;-62
2023/04/29 08:16:45;;;;;;;;;;;;;;;16.23;62.93;101648.81;7360018;19;20467;-62
2023/04/29 08:19:12;;;;;;;;;;;;;;;16.40;63.07;101650.44;7361086;19;19922;-62
2023/04/29 08:21:40;;;;;;;;;;;;;;;16.32;61.80;101647.78;7358968;19;20222;-63
2023/04/29 08:24:07;;;;;;;;;;;;;;;16.11;63.09;101648.34;7360859;19;20311;-62
2023/04/29 08:26:34;;;;;;;;;;;;;;;15.91;63.54;101648.84;7359727;19;20693;-62
2023/04/29 08:29:04;;;;;;;;;;;;;;;15.71;63.87;101649.19;7362385;19;19998;-63
2023/04/29 08:31:31;;;;;;;;;;;;;;;15.56;65.41;101645.53;7357657;19;20056;-66
2023/04/29 08:33:59;;;;;;;;;;;;;;;15.56;64.82;101645.53;7363234;19;20007;-63
2023/04/29 08:36:27;;;;;;;;;;;;;;;15.56;65.17;101645.53;7361801;19;19914;-63
2023/04/29 08:38:54;;;;;;;;;;;;;;;15.56;65.90;101648.19;7360773;19;20517;-62
2023/04/29 08:41:22;;;;;;;;;;;;;;;15.58;66.02;101648.03;7358622;19;20454;-62
2023/04/29 08:43:49;;;;;;;;;;;;;;;15.61;66.35;101650.34;7361796;19;19907;-63
2023/04/29 08:46:17;;;;;;;;;;;;;;;15.67;66.74;101650.53;7356460;19;21656;-63
2023/04/29 08:48:45;;;;;;;;;;;;;;;15.67;66.19;101653.19;7360215;19;19915;-63
2023/04/29 08:51:12;;;;;;;;;;;;;;;15.65;65.22;101671.09;7356017;19;19956;-63
2023/04/29 08:53:39;;;;;;;;;;;;;;;15.59;65.59;101666.47;7359749;19;20351;-63
2023/04/29 08:56:11;;;;;;;;;;;;;;;15.56;65.33;101666.78;7358369;19;19911;-63
2023/04/29 08:58:39;;;;;;;;;;;;;;;15.56;65.13;101677.38;7363334;19;20314;-62
2023/04/29 09:01:08;;;;;;;;;;;;;;;15.62;64.50;101675.91;7355402;19;19947;-62
2023/04/29 09:03:36;;;;;;;;;;;;;;;15.66;63.88;101679.88;7360785;19;19919;-61
2023/04/29 09:06:04;;;;;;;;;;;;;;;15.75;64.74;101686.84;7356340;19;19926;-64
2023/04/29 09:08:31;;;;;;;;;;;;;;;15.95;63.56;101668.78;7358958;19;19922;-61
2023/04/29 09:10:59;;;;;;;;;;;;;;;16.11;62.92;101679.38;7359759;19;19923;-62
2023/04/29 09:13:27;;;;;;;;;;;;;;;16.11;63.31;101680.19;7359750;19;19926;-61
2023/04/29 09:15:55;;;;;;;;;;;;;;;16.15;62.42;101686.81;7354195;19;19911;-61
2023/04/29 09:18:32;;;;;;;;;;;;;;;16.18;62.86;101686.50;7357036;19;20352;-62
2023/04/29 09:21:11;;;;;;;;;;;;;;;16.21;61.96;101687.97;7352326;19;20352;-61
2023/04/29 09:23:38;;;;;;;;;;;;;;;16.20;61.78;101681.03;7360566;19;19943;-61
2023/04/29 09:26:06;;;;;;;;;;;;;;;16.22;62.05;101687.00;7357205;19;19918;-62
2023/04/29 09:28:33;;;;;;;;;;;;;;;16.25;61.72;101687.47;7357684;19;19947;-62
2023/04/29 09:31:05;;;;;;;;;;;;;;;16.32;63.45;101686.81;7353134;19;19915;-61
2023/04/29 09:33:48;;;;;;;;;;;;;;;16.36;62.52;101696.94;7359899;19;19922;-62
2023/04/29 09:36:34;;;;;;;;;;;;;;;16.35;61.49;101694.47;7358131;19;20545;-62
2023/04/29 09:39:01;;;;;;;;;;;;;;;16.36;60.84;101691.63;7359098;19;19922;-62
2023/04/29 09:41:28;;;;;;;;;;;;;;;16.42;60.90;101696.25;7357476;19;20830;-63
2023/04/29 09:44:04;;;;;;;;;;;;;;;16.41;60.61;101699.06;7357506;19;19927;-63
2023/04/29 09:46:32;;;;;;;;;;;;;;;16.51;62.25;101691.75;7351964;19;19925;-61
2023/04/29 09:49:00;;;;;;;;;;;;;;;16.58;61.59;101696.25;7359668;19;19914;-61
2023/04/29 09:51:27;;;;;;;;;;;;;;;16.66;61.88;101703.34;7357949;19;19925;-63
2023/04/29 09:53:54;;;;;;;;;;;;;;;16.73;60.55;101706.16;7363687;19;20800;-62
2023/04/29 09:56:22;;;;;;;;;;;;;;;16.68;59.43;101699.53;7365917;19;21167;-63
2023/04/29 09:58:49;;;;;;;;;;;;;;;16.64;59.62;101705.38;7365060;19;19927;-63
2023/04/29 10:01:20;;;;;;;;;;;;;;;16.68;60.46;101702.19;7362012;19;20367;-62
2023/04/29 10:03:48;;;;;;;;;;;;;;;16.77;59.71;101699.50;7365036;19;19926;-61
2023/04/29 10:06:16;;;;;;;;;;;;;;;16.82;59.08;101702.47;7364376;19;20244;-67
2023/04/29 10:08:43;;;;;;;;;;;;;;;16.88;58.29;101691.16;7366157;19;19919;-63
2023/04/29 10:11:11;;;;;;;;;;;;;;;16.96;58.41;101693.81;7364415;19;19930;-63
2023/04/29 10:13:41;;;;;;;;;;;;;;;16.98;58.12;101691.78;7364031;19;19926;-62
2023/04/29 10:16:17;;;;;;;;;;;;;;;17.03;58.45;101694.75;7361300;19;19918;-61
2023/04/29 10:18:48;;;;;;;;;;;;;;;17.06;58.20;101695.25;7363730;19;19943;-62
2023/04/29 10:21:17;;;;;;;;;;;;;;;17.07;57.71;101696.88;7360430;19;20286;-62
2023/04/29 10:23:45;;;;;;;;;;;;;;;17.09;56.75;101702.88;7361739;19;20679;-61
2023/04/29 10:26:13;;;;;;;;;;;;;;;17.04;56.53;101699.06;7359786;19;20351;-63
2023/04/29 10:28:42;;;;;;;;;;;;;;;16.97;56.85;101698.94;7365371;19;19927;-62
2023/04/29 10:31:09;;;;;;;;;;;;;;;16.90;57.63;101702.47;7359656;19;19934;-64
2023/04/29 10:33:39;;;;;;;;;;;;;;;16.84;58.25;101703.97;7366108;19;20010;-63
2023/04/29 10:36:08;;;;;;;;;;;;;;;16.87;59.11;101697.47;7363414;19;19923;-63
2023/04/29 10:38:40;;;;;;;;;;;;;;;16.97;59.05;101704.25;7367091;19;20459;-63
2023/04/29 10:41:09;;;;;;;;;;;;;;;17.02;58.73;101691.25;7363354;19;20501;-62
2023/04/29 10:43:36;;;;;;;;;;;;;;;17.08;58.60;101695.88;7367520;19;20764;-61
2023/04/29 10:46:19;;;;;;;;;;;;;;;17.16;59.28;101692.38;7357390;19;20098;-63
2023/04/29 10:48:47;;;;;;;;;;;;;;;17.27;59.60;101693.81;7361492;19;19929;-63
2023/04/29 10:51:23;;;;;;;;;;;;;;;17.32;57.90;101691.47;7365792;19;19914;-61
2023/04/29 10:54:01;;;;;;;;;;;;;;;17.39;58.75;101693.22;7363096;19;20420;-62
2023/04/29 10:56:36;;;;;;;;;;;;;;;17.47;58.28;101690.50;7364800;19;20265;-62
2023/04/29 10:59:03;;;;;;;;;;;;;;;17.50;58.36;101694.66;7360192;19;19927;-63
2023/04/29 11:01:41;;;;;;;;;;;;;;;17.52;57.66;101692.66;7358791;19;19919;-62
2023/04/29 11:04:09;;;;;;;;;;;;;;;17.54;57.75;101696.78;7364035;19;19927;-61
2023/04/29 11:06:38;;;;;;;;;;;;;;;17.56;57.12;101693.13;7361201;19;19994;-63
2023/04/29 11:09:08;;;;;;;;;;;;;;;17.58;56.88;101696.41;7362272;19;19923;-63
2023/04/29 11:11:48;;;;;;;;;;;;;;;17.54;57.52;101688.78;7317184;19;20483;-63
2023/04/29 11:14:20;;;;;;;;;;;;;;;17.51;57.21;101689.16;7346891;19;20305;-63
2023/04/29 11:16:50;;;;;;;;;;;;;;;17.49;57.03;101679.69;7353272;19;19926;-61
2023/04/29 11:19:17;;;;;;;;;;;;;;;17.54;57.40;101683.47;7355676;19;19915;-62
2023/04/29 11:21:46;;;;;;;;;;;;;;;17.59;57.68;101687.44;7352207;19;19919;-63
2023/04/29 11:24:14;;;;;;;;;;;;;;;17.63;57.58;101684.25;7354741;19;20439;-62
2023/04/29 11:26:45;;;;;;;;;;;;;;;17.71;57.43;101694.88;7352617;19;20233;-63
2023/04/29 11:29:12;;;;;;;;;;;;;;;17.75;58.88;101700.66;7353752;19;19941;-63
2023/04/29 11:31:39;;;;;;;;;;;;;;;17.76;57.88;101697.00;7352705;19;19919;-62
2023/04/29 11:34:06;;;;;;;;;;;;;;;17.72;56.59;101699.19;7357475;19;19931;-63
2023/04/29 11:36:34;;;;;;;;;;;;;;;17.73;56.85;101692.00;7352646;19;19929;-63
2023/04/29 11:39:02;;;;;;;;;;;;;;;17.77;56.73;101680.84;7356842;19;19923;-63
2023/04/29 11:41:30;;;;;;;;;;;;;;;17.85;57.24;101691.44;7357036;19;20867;-62
2023/04/29 11:44:00;;;;;;;;;;;;;;;17.90;55.53;101685.56;7355309;19;19922;-63
2023/04/29 11:46:29;;;;;;;;;;;;;;;17.95;54.75;101685.84;7351134;19;19941;-62
2023/04/29 11:48:58;;;;;;;;;;;;;;;17.98;54.64;101680.16;7354893;19;19921;-61
2023/04/29 11:51:25;;;;;;;;;;;;;;;18.00;54.34;101686.13;7358375;19;20360;-63
2023/04/29 11:53:52;;;;;;;;;;;;;;;18.03;54.93;101685.75;7357406;19;20871;-63
2023/04/29 11:56:24;;;;;;;;;;;;;;;17.99;54.24;101686.31;7348281;19;20033;-63
2023/04/29 11:59:00;;;;;;;;;;;;;;;18.00;54.78;101680.81;7356566;19;19918;-62
2023/04/29 12:01:27;;;;;;;;;;;;;;;18.02;54.06;101683.31;7354943;19;20340;-64
2023/04/29 12:03:59;;;;;;;;;;;;;;;18.00;53.75;101686.13;7354332;19;19931;-62
2023/04/29 12:06:28;;;;;;;;;;;;;;;18.05;53.97;101681.09;7354335;19;19926;-63
2023/04/29 12:08:57;;;;;;;;;;;;;;;18.10;54.33;101685.88;7357808;19;19930;-63
2023/04/29 12:11:25;;;;;;;;;;;;;;;18.12;53.59;101678.56;7356943;19;19921;-62
2023/04/29 12:13:53;;;;;;;;;;;;;;;18.22;52.09;101679.13;7355533;19;20358;-62
2023/04/29 12:16:22;;;;;;;;;;;;;;;18.23;52.32;101678.13;7345117;19;19930;-62
2023/04/29 12:18:50;;;;;;;;;;;;;;;18.20;53.56;101681.13;7358085;19;20027;-63
2023/04/29 12:21:18;;;;;;;;;;;;;;;18.20;53.93;101683.78;7358657;19;19919;-63
2023/04/29 12:23:45;;;;;;;;;;;;;;;18.26;53.86;101675.91;7363322;19;19926;-62
2023/04/29 12:26:12;;;;;;;;;;;;;;;18.32;53.07;101674.34;7357475;19;19926;-62
2023/04/29 12:28:41;;;;;;;;;;;;;;;18.35;52.61;101679.31;7360355;19;19923;-63
2023/04/29 12:31:10;;;;;;;;;;;;;;;18.37;53.62;101671.97;7356953;19;21586;-64
2023/04/29 12:33:37;;;;;;;;;;;;;;;18.38;53.37;101676.28;7359670;19;19931;-62
2023/04/29 12:36:15;;;;;;;;;;;;;;;18.42;52.46;101671.41;7360172;19;20420;-63
2023/04/29 12:38:42;;;;;;;;;;;;;;;18.44;53.22;101672.06;7362084;19;19928;-62
2023/04/29 12:41:12;;;;;;;;;;;;;;;18.44;54.05;101672.88;7359909;19;19922;-62